sensor_id;sensor_type;location;lat;lon;timestamp;pressure;altitude;pressure_sealevel;temperature;humidity
54870;BME280;40756;-37.950;145.008;2023-07-02T00:01:00;103199.92;;;12.44;55.68
54870;BME280;40756;-37.950;145.008;2023-07-02T00:03:30;103203.12;;;12.39;56.53
54870;BME280;40756;-37.950;145.008;2023-07-02T00:06:00;103213.11;;;11.95;56.60
54870;BME280;40756;-37.950;145.008;2023-07-02T00:08:30;103216.98;;;11.70;57.11
54870;BME280;40756;-37.950;145.008;2023-07-02T00:10:59;103228.90;;;11.81;56.67
54870;BME280;40756;-37.950;145.008;2023-07-02T00:13:29;103229.28;;;11.93;57.39
54870;BME280;40756;-37.950;145.008;2023-07-02T00:15:59;103233.27;;;11.57;59.05
54870;BME280;40756;-37.950;145.008;2023-07-02T00:18:28;103236.45;;;11.74;58.54
54870;BME280;40756;-37.950;145.008;2023-07-02T00:20:58;103240.64;;;11.27;61.07
54870;BME280;40756;-37.950;145.008;2023-07-02T00:23:28;103233.17;;;11.60;61.57
54870;BME280;40756;-37.950;145.008;2023-07-02T00:25:57;103231.16;;;12.38;60.78
54870;BME280;40756;-37.950;145.008;2023-07-02T00:28:27;103226.92;;;11.41;61.87
54870;BME280;40756;-37.950;145.008;2023-07-02T00:30:56;103229.70;;;12.54;60.33
54870;BME280;40756;-37.950;145.008;2023-07-02T00:33:26;103224.20;;;11.72;60.96
54870;BME280;40756;-37.950;145.008;2023-07-02T00:35:55;103221.79;;;11.55;60.59
54870;BME280;40756;-37.950;145.008;2023-07-02T00:38:25;103225.14;;;11.91;61.15
54870;BME280;40756;-37.950;145.008;2023-07-02T00:40:55;103221.08;;;11.45;62.05
54870;BME280;40756;-37.950;145.008;2023-07-02T00:43:24;103219.61;;;11.78;62.38
54870;BME280;40756;-37.950;145.008;2023-07-02T00:45:54;103221.95;;;10.85;64.59
54870;BME280;40756;-37.950;145.008;2023-07-02T00:48:24;103221.77;;;11.84;62.40
54870;BME280;40756;-37.950;145.008;2023-07-02T00:50:54;103222.77;;;12.50;60.90
54870;BME280;40756;-37.950;145.008;2023-07-02T00:53:23;103216.70;;;11.83;60.45
54870;BME280;40756;-37.950;145.008;2023-07-02T00:55:53;103208.79;;;12.19;60.61
54870;BME280;40756;-37.950;145.008;2023-07-02T00:58:23;103205.23;;;12.04;60.88
54870;BME280;40756;-37.950;145.008;2023-07-02T01:00:53;103203.61;;;11.44;61.72
54870;BME280;40756;-37.950;145.008;2023-07-02T01:03:23;103206.61;;;11.97;60.87
54870;BME280;40756;-37.950;145.008;2023-07-02T01:05:53;103206.07;;;11.69;61.79
54870;BME280;40756;-37.950;145.008;2023-07-02T01:08:22;103203.38;;;11.94;62.62
54870;BME280;40756;-37.950;145.008;2023-07-02T01:10:52;103202.15;;;11.79;61.86
54870;BME280;40756;-37.950;145.008;2023-07-02T01:13:23;103199.27;;;12.09;62.75
54870;BME280;40756;-37.950;145.008;2023-07-02T01:15:53;103201.84;;;12.10;62.07
54870;BME280;40756;-37.950;145.008;2023-07-02T01:18:23;103199.72;;;12.21;62.59
54870;BME280;40756;-37.950;145.008;2023-07-02T01:20:53;103192.59;;;11.84;61.86
54870;BME280;40756;-37.950;145.008;2023-07-02T01:23:23;103191.86;;;12.66;61.04
54870;BME280;40756;-37.950;145.008;2023-07-02T01:25:53;103193.11;;;12.25;63.00
54870;BME280;40756;-37.950;145.008;2023-07-02T01:28:23;103188.82;;;12.26;62.42
54870;BME280;40756;-37.950;145.008;2023-07-02T01:30:53;103182.80;;;11.47;63.69
54870;BME280;40756;-37.950;145.008;2023-07-02T01:33:22;103176.34;;;12.56;62.06
54870;BME280;40756;-37.950;145.008;2023-07-02T01:35:53;103171.56;;;12.28;63.16
54870;BME280;40756;-37.950;145.008;2023-07-02T01:38:23;103168.87;;;11.64;62.90
54870;BME280;40756;-37.950;145.008;2023-07-02T01:40:52;103163.03;;;11.90;63.93
54870;BME280;40756;-37.950;145.008;2023-07-02T01:43:22;103161.54;;;12.08;64.09
54870;BME280;40756;-37.950;145.008;2023-07-02T01:45:52;103158.97;;;12.02;63.70
54870;BME280;40756;-37.950;145.008;2023-07-02T01:48:21;103153.19;;;10.87;63.93
54870;BME280;40756;-37.950;145.008;2023-07-02T01:50:51;103151.28;;;11.90;62.94
54870;BME280;40756;-37.950;145.008;2023-07-02T01:53:20;103148.61;;;11.51;64.28
54870;BME280;40756;-37.950;145.008;2023-07-02T01:55:50;103152.26;;;11.51;65.58
54870;BME280;40756;-37.950;145.008;2023-07-02T01:58:20;103152.81;;;12.03;64.21
54870;BME280;40756;-37.950;145.008;2023-07-02T02:00:50;103153.34;;;12.66;63.16
54870;BME280;40756;-37.950;145.008;2023-07-02T02:03:19;103153.98;;;12.42;62.04
54870;BME280;40756;-37.950;145.008;2023-07-02T02:05:49;103157.95;;;12.40;62.72
54870;BME280;40756;-37.950;145.008;2023-07-02T02:08:19;103159.65;;;11.39;64.09
54870;BME280;40756;-37.950;145.008;2023-07-02T02:10:48;103163.81;;;12.00;62.99
54870;BME280;40756;-37.950;145.008;2023-07-02T02:13:18;103159.42;;;11.79;64.06
54870;BME280;40756;-37.950;145.008;2023-07-02T02:15:48;103162.95;;;12.21;62.86
54870;BME280;40756;-37.950;145.008;2023-07-02T02:18:17;103161.96;;;11.96;63.85
54870;BME280;40756;-37.950;145.008;2023-07-02T02:20:47;103158.93;;;11.10;65.43
54870;BME280;40756;-37.950;145.008;2023-07-02T02:23:17;103156.54;;;11.12;65.87
54870;BME280;40756;-37.950;145.008;2023-07-02T02:25:47;103151.30;;;12.35;63.93
54870;BME280;40756;-37.950;145.008;2023-07-02T02:28:16;103150.91;;;12.72;63.51
54870;BME280;40756;-37.950;145.008;2023-07-02T02:30:46;103152.04;;;10.70;64.08
54870;BME280;40756;-37.950;145.008;2023-07-02T02:33:16;103145.34;;;12.33;64.28
54870;BME280;40756;-37.950;145.008;2023-07-02T02:35:45;103143.53;;;12.01;64.28
54870;BME280;40756;-37.950;145.008;2023-07-02T02:38:16;103138.28;;;12.55;63.44
54870;BME280;40756;-37.950;145.008;2023-07-02T02:40:45;103138.61;;;13.05;62.85
54870;BME280;40756;-37.950;145.008;2023-07-02T02:43:15;103142.35;;;12.70;62.21
54870;BME280;40756;-37.950;145.008;2023-07-02T02:45:44;103140.39;;;12.85;61.07
54870;BME280;40756;-37.950;145.008;2023-07-02T02:48:14;103136.79;;;13.56;60.52
54870;BME280;40756;-37.950;145.008;2023-07-02T02:50:44;103141.75;;;11.90;60.51
54870;BME280;40756;-37.950;145.008;2023-07-02T02:53:14;103132.02;;;12.84;61.02
54870;BME280;40756;-37.950;145.008;2023-07-02T02:55:43;103121.26;;;13.10;60.74
54870;BME280;40756;-37.950;145.008;2023-07-02T02:58:13;103117.02;;;12.70;60.00
54870;BME280;40756;-37.950;145.008;2023-07-02T03:00:43;103111.28;;;13.13;59.84
54870;BME280;40756;-37.950;145.008;2023-07-02T03:03:13;103107.34;;;13.39;58.71
54870;BME280;40756;-37.950;145.008;2023-07-02T03:05:42;103108.25;;;13.20;57.99
54870;BME280;40756;-37.950;145.008;2023-07-02T03:08:12;103109.45;;;13.37;59.00
54870;BME280;40756;-37.950;145.008;2023-07-02T03:10:42;103112.69;;;13.13;57.69
54870;BME280;40756;-37.950;145.008;2023-07-02T03:13:11;103112.25;;;12.90;58.35
54870;BME280;40756;-37.950;145.008;2023-07-02T03:15:40;103111.09;;;13.70;57.78
54870;BME280;40756;-37.950;145.008;2023-07-02T03:18:10;103111.89;;;13.60;58.15
54870;BME280;40756;-37.950;145.008;2023-07-02T03:20:40;103105.45;;;12.98;56.96
54870;BME280;40756;-37.950;145.008;2023-07-02T03:23:09;103090.90;;;13.73;55.59
54870;BME280;40756;-37.950;145.008;2023-07-02T03:25:39;103089.33;;;13.47;55.49
54870;BME280;40756;-37.950;145.008;2023-07-02T03:28:09;103086.30;;;13.48;56.33
54870;BME280;40756;-37.950;145.008;2023-07-02T03:30:38;103085.87;;;12.92;57.35
54870;BME280;40756;-37.950;145.008;2023-07-02T03:33:09;103083.48;;;12.44;58.55
54870;BME280;40756;-37.950;145.008;2023-07-02T03:35:39;103079.48;;;12.66;59.78
54870;BME280;40756;-37.950;145.008;2023-07-02T03:38:08;103068.33;;;13.66;58.56
54870;BME280;40756;-37.950;145.008;2023-07-02T03:40:39;103060.29;;;13.27;59.09
54870;BME280;40756;-37.950;145.008;2023-07-02T03:43:09;103056.62;;;13.30;58.06
54870;BME280;40756;-37.950;145.008;2023-07-02T03:45:38;103053.16;;;12.59;58.99
54870;BME280;40756;-37.950;145.008;2023-07-02T03:48:08;103050.69;;;12.69;58.60
54870;BME280;40756;-37.950;145.008;2023-07-02T03:50:37;103051.39;;;13.20;59.91
54870;BME280;40756;-37.950;145.008;2023-07-02T03:53:07;103056.51;;;11.99;61.46
54870;BME280;40756;-37.950;145.008;2023-07-02T03:55:37;103052.34;;;13.08;59.72
54870;BME280;40756;-37.950;145.008;2023-07-02T03:58:06;103050.43;;;12.53;60.81
54870;BME280;40756;-37.950;145.008;2023-07-02T04:00:36;103041.06;;;12.91;60.62
54870;BME280;40756;-37.950;145.008;2023-07-02T04:03:06;103043.87;;;12.81;60.66
54870;BME280;40756;-37.950;145.008;2023-07-02T04:05:35;103047.99;;;12.65;60.61
54870;BME280;40756;-37.950;145.008;2023-07-02T04:08:05;103052.55;;;11.84;61.86
54870;BME280;40756;-37.950;145.008;2023-07-02T04:10:35;103050.32;;;12.16;61.09
54870;BME280;40756;-37.950;145.008;2023-07-02T04:13:04;103052.76;;;12.75;60.50
54870;BME280;40756;-37.950;145.008;2023-07-02T04:15:34;103053.70;;;12.41;61.75
54870;BME280;40756;-37.950;145.008;2023-07-02T04:18:04;103054.90;;;12.23;61.52
54870;BME280;40756;-37.950;145.008;2023-07-02T04:20:33;103056.01;;;12.08;62.00
54870;BME280;40756;-37.950;145.008;2023-07-02T04:23:03;103053.00;;;12.65;60.18
54870;BME280;40756;-37.950;145.008;2023-07-02T04:25:33;103055.41;;;12.63;59.93
54870;BME280;40756;-37.950;145.008;2023-07-02T04:28:03;103053.81;;;12.93;59.83
54870;BME280;40756;-37.950;145.008;2023-07-02T04:30:32;103050.88;;;13.00;59.17
54870;BME280;40756;-37.950;145.008;2023-07-02T04:33:02;103053.65;;;12.23;59.04
54870;BME280;40756;-37.950;145.008;2023-07-02T04:35:31;103053.74;;;13.00;58.54
54870;BME280;40756;-37.950;145.008;2023-07-02T04:38:01;103055.60;;;12.04;59.79
54870;BME280;40756;-37.950;145.008;2023-07-02T04:40:31;103049.38;;;13.04;58.23
54870;BME280;40756;-37.950;145.008;2023-07-02T04:43:01;103050.87;;;12.66;57.69
54870;BME280;40756;-37.950;145.008;2023-07-02T04:45:32;103053.99;;;12.31;59.45
54870;BME280;40756;-37.950;145.008;2023-07-02T04:48:02;103049.48;;;13.34;59.18
54870;BME280;40756;-37.950;145.008;2023-07-02T04:50:31;103048.02;;;12.76;58.99
54870;BME280;40756;-37.950;145.008;2023-07-02T04:53:01;103043.30;;;13.40;57.60
54870;BME280;40756;-37.950;145.008;2023-07-02T04:55:31;103040.03;;;13.08;57.51
54870;BME280;40756;-37.950;145.008;2023-07-02T04:58:00;103036.27;;;13.55;56.71
54870;BME280;40756;-37.950;145.008;2023-07-02T05:00:30;103038.06;;;13.12;57.52
54870;BME280;40756;-37.950;145.008;2023-07-02T05:03:00;103034.42;;;13.14;58.11
54870;BME280;40756;-37.950;145.008;2023-07-02T05:05:29;103033.97;;;13.70;56.65
54870;BME280;40756;-37.950;145.008;2023-07-02T05:07:59;103034.64;;;13.60;57.06
54870;BME280;40756;-37.950;145.008;2023-07-02T05:10:29;103030.95;;;13.48;55.78
54870;BME280;40756;-37.950;145.008;2023-07-02T05:12:58;103027.31;;;14.05;54.64
54870;BME280;40756;-37.950;145.008;2023-07-02T05:15:28;103032.90;;;13.71;55.27
54870;BME280;40756;-37.950;145.008;2023-07-02T05:17:57;103034.03;;;13.75;55.91
54870;BME280;40756;-37.950;145.008;2023-07-02T05:20:27;103032.56;;;13.94;55.00
54870;BME280;40756;-37.950;145.008;2023-07-02T05:22:56;103027.71;;;14.64;55.05
54870;BME280;40756;-37.950;145.008;2023-07-02T05:25:26;103029.56;;;14.52;53.85
54870;BME280;40756;-37.950;145.008;2023-07-02T05:27:56;103030.97;;;14.78;53.97
54870;BME280;40756;-37.950;145.008;2023-07-02T05:30:25;103031.46;;;14.89;52.47
54870;BME280;40756;-37.950;145.008;2023-07-02T05:32:55;103029.58;;;14.67;52.75
54870;BME280;40756;-37.950;145.008;2023-07-02T05:35:24;103030.12;;;15.14;51.82
54870;BME280;40756;-37.950;145.008;2023-07-02T05:37:54;103031.19;;;14.14;52.06
54870;BME280;40756;-37.950;145.008;2023-07-02T05:40:24;103035.09;;;14.46;52.00
54870;BME280;40756;-37.950;145.008;2023-07-02T05:42:53;103044.13;;;13.89;52.42
54870;BME280;40756;-37.950;145.008;2023-07-02T05:45:24;103044.82;;;14.51;51.53
54870;BME280;40756;-37.950;145.008;2023-07-02T05:47:53;103047.42;;;13.49;52.63
54870;BME280;40756;-37.950;145.008;2023-07-02T05:50:23;103041.91;;;14.50;52.28
54870;BME280;40756;-37.950;145.008;2023-07-02T05:52:52;103039.48;;;14.48;52.12
54870;BME280;40756;-37.950;145.008;2023-07-02T05:55:22;103039.96;;;14.25;51.91
54870;BME280;40756;-37.950;145.008;2023-07-02T05:57:52;103041.39;;;13.96;53.45
54870;BME280;40756;-37.950;145.008;2023-07-02T06:00:21;103044.95;;;13.22;55.05
54870;BME280;40756;-37.950;145.008;2023-07-02T06:02:51;103045.67;;;13.31;55.03
54870;BME280;40756;-37.950;145.008;2023-07-02T06:05:21;103045.47;;;13.94;53.85
54870;BME280;40756;-37.950;145.008;2023-07-02T06:07:50;103049.50;;;13.94;53.99
54870;BME280;40756;-37.950;145.008;2023-07-02T06:10:20;103055.35;;;13.53;53.99
54870;BME280;40756;-37.950;145.008;2023-07-02T06:12:49;103058.94;;;13.65;54.43
54870;BME280;40756;-37.950;145.008;2023-07-02T06:15:19;103060.01;;;13.86;53.39
54870;BME280;40756;-37.950;145.008;2023-07-02T06:17:49;103063.43;;;13.85;53.03
54870;BME280;40756;-37.950;145.008;2023-07-02T06:20:18;103065.40;;;14.06;52.81
54870;BME280;40756;-37.950;145.008;2023-07-02T06:22:47;103064.29;;;13.78;53.07
54870;BME280;40756;-37.950;145.008;2023-07-02T06:25:17;103061.50;;;13.96;53.52
54870;BME280;40756;-37.950;145.008;2023-07-02T06:27:47;103060.55;;;14.19;53.75
54870;BME280;40756;-37.950;145.008;2023-07-02T06:30:17;103061.95;;;13.65;54.28
54870;BME280;40756;-37.950;145.008;2023-07-02T06:32:46;103062.13;;;13.81;54.91
54870;BME280;40756;-37.950;145.008;2023-07-02T06:35:16;103061.71;;;13.73;56.98
54870;BME280;40756;-37.950;145.008;2023-07-02T06:37:45;103062.14;;;13.36;57.37
54870;BME280;40756;-37.950;145.008;2023-07-02T06:40:15;103062.47;;;14.15;55.17
54870;BME280;40756;-37.950;145.008;2023-07-02T06:42:45;103063.98;;;13.95;54.66
54870;BME280;40756;-37.950;145.008;2023-07-02T06:45:14;103062.17;;;13.80;53.99
54870;BME280;40756;-37.950;145.008;2023-07-02T06:47:44;103054.63;;;13.78;54.18
54870;BME280;40756;-37.950;145.008;2023-07-02T06:50:14;103053.83;;;14.13;55.87
54870;BME280;40756;-37.950;145.008;2023-07-02T06:52:43;103057.41;;;13.98;55.47
54870;BME280;40756;-37.950;145.008;2023-07-02T06:55:13;103059.74;;;14.35;53.47
54870;BME280;40756;-37.950;145.008;2023-07-02T06:57:46;103063.22;;;14.30;52.29
54870;BME280;40756;-37.950;145.008;2023-07-02T07:00:16;103059.10;;;14.22;51.83
54870;BME280;40756;-37.950;145.008;2023-07-02T07:02:46;103053.11;;;14.24;52.19
54870;BME280;40756;-37.950;145.008;2023-07-02T07:05:15;103052.44;;;13.77;52.47
54870;BME280;40756;-37.950;145.008;2023-07-02T07:07:45;103051.87;;;14.03;52.92
54870;BME280;40756;-37.950;145.008;2023-07-02T07:10:15;103050.14;;;13.95;52.80
54870;BME280;40756;-37.950;145.008;2023-07-02T07:12:44;103047.92;;;13.37;54.39
54870;BME280;40756;-37.950;145.008;2023-07-02T07:15:14;103046.28;;;13.72;54.36
54870;BME280;40756;-37.950;145.008;2023-07-02T07:17:44;103047.63;;;13.91;54.80
54870;BME280;40756;-37.950;145.008;2023-07-02T07:20:14;103039.44;;;13.71;54.52
54870;BME280;40756;-37.950;145.008;2023-07-02T07:22:43;103035.55;;;13.76;54.56
54870;BME280;40756;-37.950;145.008;2023-07-02T07:25:13;103036.14;;;13.52;54.82
54870;BME280;40756;-37.950;145.008;2023-07-02T07:27:43;103034.59;;;13.57;55.13
54870;BME280;40756;-37.950;145.008;2023-07-02T07:30:13;103033.62;;;13.64;55.40
54870;BME280;40756;-37.950;145.008;2023-07-02T07:32:43;103031.25;;;13.23;55.82
54870;BME280;40756;-37.950;145.008;2023-07-02T07:35:13;103029.56;;;13.73;56.14
54870;BME280;40756;-37.950;145.008;2023-07-02T07:37:42;103024.69;;;13.58;56.42
54870;BME280;40756;-37.950;145.008;2023-07-02T07:40:13;103024.01;;;13.18;56.19
54870;BME280;40756;-37.950;145.008;2023-07-02T07:42:43;103031.68;;;13.59;56.06
54870;BME280;40756;-37.950;145.008;2023-07-02T07:45:13;103031.04;;;13.87;55.96
54870;BME280;40756;-37.950;145.008;2023-07-02T07:47:42;103031.62;;;13.61;56.11
54870;BME280;40756;-37.950;145.008;2023-07-02T07:50:12;103034.09;;;13.81;55.77
54870;BME280;40756;-37.950;145.008;2023-07-02T07:52:42;103029.99;;;13.73;55.91
54870;BME280;40756;-37.950;145.008;2023-07-02T07:55:12;103026.09;;;13.55;56.47
54870;BME280;40756;-37.950;145.008;2023-07-02T07:57:41;103024.19;;;13.60;56.44
54870;BME280;40756;-37.950;145.008;2023-07-02T08:00:12;103025.74;;;13.46;56.28
54870;BME280;40756;-37.950;145.008;2023-07-02T08:02:41;103026.61;;;13.51;56.66
54870;BME280;40756;-37.950;145.008;2023-07-02T08:05:11;103022.49;;;13.38;56.67
54870;BME280;40756;-37.950;145.008;2023-07-02T08:07:41;103019.86;;;13.59;56.34
54870;BME280;40756;-37.950;145.008;2023-07-02T08:10:11;103020.70;;;13.64;56.40
54870;BME280;40756;-37.950;145.008;2023-07-02T08:12:40;103022.66;;;13.59;56.02
54870;BME280;40756;-37.950;145.008;2023-07-02T08:15:10;103023.49;;;13.58;56.08
54870;BME280;40756;-37.950;145.008;2023-07-02T08:17:40;103030.33;;;13.47;56.27
54870;BME280;40756;-37.950;145.008;2023-07-02T08:20:11;103033.68;;;13.35;55.95
54870;BME280;40756;-37.950;145.008;2023-07-02T08:22:40;103033.96;;;13.55;56.05
54870;BME280;40756;-37.950;145.008;2023-07-02T08:25:10;103036.89;;;13.47;56.40
54870;BME280;40756;-37.950;145.008;2023-07-02T08:27:40;103034.79;;;13.26;56.38
54870;BME280;40756;-37.950;145.008;2023-07-02T08:30:10;103029.92;;;13.26;56.57
54870;BME280;40756;-37.950;145.008;2023-07-02T08:32:39;103025.81;;;13.23;56.81
54870;BME280;40756;-37.950;145.008;2023-07-02T08:35:09;103021.66;;;13.11;57.24
54870;BME280;40756;-37.950;145.008;2023-07-02T08:37:38;103019.55;;;13.51;56.90
54870;BME280;40756;-37.950;145.008;2023-07-02T08:40:16;103020.33;;;12.94;57.11
54870;BME280;40756;-37.950;145.008;2023-07-02T08:42:47;103019.24;;;13.01;57.01
54870;BME280;40756;-37.950;145.008;2023-07-02T08:45:17;103016.85;;;12.87;57.38
54870;BME280;40756;-37.950;145.008;2023-07-02T08:47:47;103018.38;;;13.05;57.13
54870;BME280;40756;-37.950;145.008;2023-07-02T08:50:17;103015.44;;;13.33;56.95
54870;BME280;40756;-37.950;145.008;2023-07-02T08:52:47;103014.65;;;13.34;56.92
54870;BME280;40756;-37.950;145.008;2023-07-02T08:55:17;103013.03;;;13.59;56.46
54870;BME280;40756;-37.950;145.008;2023-07-02T08:57:52;103012.82;;;13.26;56.26
54870;BME280;40756;-37.950;145.008;2023-07-02T09:00:24;103013.38;;;12.93;56.76
54870;BME280;40756;-37.950;145.008;2023-07-02T09:02:53;103013.11;;;12.89;57.70
54870;BME280;40756;-37.950;145.008;2023-07-02T09:05:23;103012.75;;;12.95;57.78
54870;BME280;40756;-37.950;145.008;2023-07-02T09:07:53;103012.89;;;13.06;58.08
54870;BME280;40756;-37.950;145.008;2023-07-02T09:10:30;103015.27;;;13.08;57.74
54870;BME280;40756;-37.950;145.008;2023-07-02T09:13:08;103019.07;;;13.11;57.52
54870;BME280;40756;-37.950;145.008;2023-07-02T09:15:38;103016.52;;;13.13;57.70
54870;BME280;40756;-37.950;145.008;2023-07-02T09:18:18;103013.18;;;13.09;57.72
54870;BME280;40756;-37.950;145.008;2023-07-02T09:20:50;103010.94;;;13.14;57.76
54870;BME280;40756;-37.950;145.008;2023-07-02T09:23:20;103013.11;;;13.18;58.30
54870;BME280;40756;-37.950;145.008;2023-07-02T09:25:50;103007.65;;;14.60;60.08
54870;BME280;40756;-37.950;145.008;2023-07-02T09:28:21;103008.78;;;15.16;55.88
54870;BME280;40756;-37.950;145.008;2023-07-02T09:30:52;103003.19;;;16.47;51.46
54870;BME280;40756;-37.950;145.008;2023-07-02T09:33:22;102991.84;;;16.76;48.69
54870;BME280;40756;-37.950;145.008;2023-07-02T09:35:52;102994.16;;;16.98;47.34
54870;BME280;40756;-37.950;145.008;2023-07-02T09:38:22;102993.10;;;16.20;46.52
54870;BME280;40756;-37.950;145.008;2023-07-02T09:40:54;102992.12;;;15.55;46.95
54870;BME280;40756;-37.950;145.008;2023-07-02T09:43:25;102995.49;;;15.27;48.93
54870;BME280;40756;-37.950;145.008;2023-07-02T09:45:56;102991.64;;;15.73;50.54
54870;BME280;40756;-37.950;145.008;2023-07-02T09:48:26;102989.71;;;15.93;47.79
54870;BME280;40756;-37.950;145.008;2023-07-02T09:50:59;102991.77;;;15.38;48.11
54870;BME280;40756;-37.950;145.008;2023-07-02T09:53:30;102993.57;;;14.99;48.95
54870;BME280;40756;-37.950;145.008;2023-07-02T09:56:00;102996.16;;;14.69;49.57
54870;BME280;40756;-37.950;145.008;2023-07-02T09:58:30;102995.98;;;14.51;50.51
54870;BME280;40756;-37.950;145.008;2023-07-02T10:00:59;102995.28;;;14.04;51.94
54870;BME280;40756;-37.950;145.008;2023-07-02T10:03:32;102992.59;;;13.88;52.86
54870;BME280;40756;-37.950;145.008;2023-07-02T10:06:06;102989.12;;;13.94;53.17
54870;BME280;40756;-37.950;145.008;2023-07-02T10:08:36;102992.00;;;13.55;53.44
54870;BME280;40756;-37.950;145.008;2023-07-02T10:11:10;102990.03;;;13.77;54.75
54870;BME280;40756;-37.950;145.008;2023-07-02T10:13:41;102986.14;;;13.82;54.65
54870;BME280;40756;-37.950;145.008;2023-07-02T10:16:11;102984.23;;;13.67;55.42
54870;BME280;40756;-37.950;145.008;2023-07-02T10:18:40;102980.91;;;13.52;55.86
54870;BME280;40756;-37.950;145.008;2023-07-02T10:21:18;102983.51;;;13.39;56.33
54870;BME280;40756;-37.950;145.008;2023-07-02T10:23:47;102981.40;;;13.20;56.91
54870;BME280;40756;-37.950;145.008;2023-07-02T10:26:18;102984.03;;;13.15;57.15
54870;BME280;40756;-37.950;145.008;2023-07-02T10:28:58;102981.57;;;13.09;56.19
54870;BME280;40756;-37.950;145.008;2023-07-02T10:31:28;102980.81;;;13.45;56.64
54870;BME280;40756;-37.950;145.008;2023-07-02T10:33:57;102987.18;;;13.40;56.79
54870;BME280;40756;-37.950;145.008;2023-07-02T10:36:27;102987.07;;;13.23;57.52
54870;BME280;40756;-37.950;145.008;2023-07-02T10:39:03;102986.01;;;13.28;56.71
54870;BME280;40756;-37.950;145.008;2023-07-02T10:41:32;102983.15;;;13.38;56.48
54870;BME280;40756;-37.950;145.008;2023-07-02T10:44:10;102982.47;;;13.43;56.10
54870;BME280;40756;-37.950;145.008;2023-07-02T10:46:48;102982.01;;;13.22;56.11
54870;BME280;40756;-37.950;145.008;2023-07-02T10:49:19;102974.84;;;13.41;56.62
54870;BME280;40756;-37.950;145.008;2023-07-02T10:51:59;102972.82;;;13.81;55.98
54870;BME280;40756;-37.950;145.008;2023-07-02T10:54:40;102973.33;;;13.16;56.47
54870;BME280;40756;-37.950;145.008;2023-07-02T10:57:12;102971.59;;;13.38;56.54
54870;BME280;40756;-37.950;145.008;2023-07-02T10:59:43;102971.29;;;13.47;56.46
54870;BME280;40756;-37.950;145.008;2023-07-02T11:02:12;102970.44;;;13.55;56.18
54870;BME280;40756;-37.950;145.008;2023-07-02T11:04:41;102969.01;;;13.38;56.31
54870;BME280;40756;-37.950;145.008;2023-07-02T11:07:13;102970.72;;;13.24;56.95
54870;BME280;40756;-37.950;145.008;2023-07-02T11:09:51;102971.24;;;13.32;56.72
54870;BME280;40756;-37.950;145.008;2023-07-02T11:12:29;102979.15;;;13.29;56.87
54870;BME280;40756;-37.950;145.008;2023-07-02T11:15:08;102983.32;;;12.93;57.20
54870;BME280;40756;-37.950;145.008;2023-07-02T11:17:38;102981.18;;;13.36;56.84
54870;BME280;40756;-37.950;145.008;2023-07-02T11:20:09;102977.86;;;12.99;57.72
54870;BME280;40756;-37.950;145.008;2023-07-02T11:22:40;102978.40;;;13.32;57.22
54870;BME280;40756;-37.950;145.008;2023-07-02T11:25:13;102975.41;;;13.02;57.49
54870;BME280;40756;-37.950;145.008;2023-07-02T11:27:43;102969.48;;;13.20;56.70
54870;BME280;40756;-37.950;145.008;2023-07-02T11:30:13;102964.46;;;13.24;56.75
54870;BME280;40756;-37.950;145.008;2023-07-02T11:32:51;102960.03;;;13.19;57.53
54870;BME280;40756;-37.950;145.008;2023-07-02T11:35:22;102958.70;;;13.46;58.35
54870;BME280;40756;-37.950;145.008;2023-07-02T11:38:03;102950.68;;;15.62;53.80
54870;BME280;40756;-37.950;145.008;2023-07-02T11:40:33;102944.44;;;17.01;49.74
54870;BME280;40756;-37.950;145.008;2023-07-02T11:43:02;102944.86;;;17.38;47.80
54870;BME280;40756;-37.950;145.008;2023-07-02T11:45:32;102951.43;;;17.57;46.52
54870;BME280;40756;-37.950;145.008;2023-07-02T11:48:02;102954.44;;;16.44;45.08
54870;BME280;40756;-37.950;145.008;2023-07-02T11:50:31;102963.39;;;15.69;46.29
54870;BME280;40756;-37.950;145.008;2023-07-02T11:53:01;102964.80;;;15.20;47.44
54870;BME280;40756;-37.950;145.008;2023-07-02T11:55:31;102966.40;;;14.52;49.11
54870;BME280;40756;-37.950;145.008;2023-07-02T11:58:00;102963.10;;;14.42;50.56
54870;BME280;40756;-37.950;145.008;2023-07-02T12:00:30;102967.11;;;13.96;51.54
54870;BME280;40756;-37.950;145.008;2023-07-02T12:03:00;102965.61;;;13.64;52.35
54870;BME280;40756;-37.950;145.008;2023-07-02T12:05:30;102963.61;;;14.19;53.88
54870;BME280;40756;-37.950;145.008;2023-07-02T12:08:01;102957.81;;;14.21;52.68
54870;BME280;40756;-37.950;145.008;2023-07-02T12:10:31;102951.65;;;13.60;53.10
54870;BME280;40756;-37.950;145.008;2023-07-02T12:13:00;102951.00;;;13.33;53.44
54870;BME280;40756;-37.950;145.008;2023-07-02T12:15:29;102948.84;;;13.19;53.77
54870;BME280;40756;-37.950;145.008;2023-07-02T12:17:58;102948.51;;;13.19;54.55
54870;BME280;40756;-37.950;145.008;2023-07-02T12:20:28;102947.15;;;13.37;55.83
54870;BME280;40756;-37.950;145.008;2023-07-02T12:22:58;102943.70;;;13.44;55.04
54870;BME280;40756;-37.950;145.008;2023-07-02T12:25:28;102942.11;;;13.57;54.05
54870;BME280;40756;-37.950;145.008;2023-07-02T12:27:57;102940.46;;;13.30;54.10
54870;BME280;40756;-37.950;145.008;2023-07-02T12:30:26;102936.47;;;13.39;54.28
54870;BME280;40756;-37.950;145.008;2023-07-02T12:32:56;102933.54;;;13.02;55.25
54870;BME280;40756;-37.950;145.008;2023-07-02T12:35:25;102932.70;;;13.27;55.06